createdAt,value
2019-01-26T00:00:41.871Z,98772.35
2019-01-26T00:03:09.403Z,98761.91
2019-01-26T00:05:36.882Z,98770.27
2019-01-26T00:08:04.345Z,98763.91
2019-01-26T00:10:33.058Z,98758.73
2019-01-26T00:13:00.598Z,98761.03
2019-01-26T00:15:28.045Z,98764.36
2019-01-26T00:17:55.495Z,98754.70
2019-01-26T00:20:22.968Z,98766.13
2019-01-26T00:22:50.423Z,98760.66
2019-01-26T00:25:17.915Z,98756.95
2019-01-26T00:27:45.365Z,98760.58
2019-01-26T00:30:13.597Z,98746.89
2019-01-26T00:32:41.038Z,98743.97
2019-01-26T00:35:08.496Z,98754.89
2019-01-26T00:37:35.961Z,98742.66
2019-01-26T00:40:03.399Z,98757.70
2019-01-26T00:42:30.954Z,98753.77
2019-01-26T00:44:58.434Z,98748.73
2019-01-26T00:47:26.060Z,98757.41
2019-01-26T00:49:53.595Z,98745.48
2019-01-26T00:52:21.156Z,98740.92
2019-01-26T00:54:48.711Z,98738.75
2019-01-26T00:57:16.451Z,98743.80
2019-01-26T00:59:44.014Z,98735.00
2019-01-26T01:02:11.492Z,98730.03
2019-01-26T01:04:38.957Z,98743.26
2019-01-26T01:07:06.456Z,98727.84
2019-01-26T01:09:33.925Z,98743.42
2019-01-26T01:12:01.449Z,98722.09
2019-01-26T01:14:29.138Z,98741.06
2019-01-26T01:16:56.733Z,98729.75
2019-01-26T01:19:24.218Z,98730.55
2019-01-26T01:21:51.733Z,98723.45
2019-01-26T01:24:19.296Z,98730.67
2019-01-26T01:26:46.821Z,98723.09
2019-01-26T01:29:14.293Z,98715.12
2019-01-26T01:31:41.831Z,98712.94
2019-01-26T01:34:09.388Z,98711.93
2019-01-26T01:36:37.004Z,98710.62
2019-01-26T01:39:04.466Z,98703.16
2019-01-26T01:41:31.946Z,98709.36
2019-01-26T01:43:59.425Z,98712.06
2019-01-26T01:46:26.932Z,98702.80
2019-01-26T01:48:54.432Z,98710.75
2019-01-26T01:51:21.920Z,98704.33
2019-01-26T01:53:49.378Z,98703.81
2019-01-26T01:56:17.424Z,98709.09
2019-01-26T01:58:44.896Z,98709.31
2019-01-26T02:01:12.378Z,98700.02
2019-01-26T02:03:39.891Z,98706.08
2019-01-26T02:06:07.434Z,98699.80
2019-01-26T02:08:34.890Z,98692.86
2019-01-26T02:11:02.357Z,98709.16
2019-01-26T02:13:29.829Z,98710.38
2019-01-26T02:15:57.384Z,98710.02
2019-01-26T02:18:24.865Z,98712.70
2019-01-26T02:20:52.359Z,98697.79
2019-01-26T02:23:19.839Z,98677.11
2019-01-26T02:25:47.318Z,98685.33
2019-01-26T02:28:15.753Z,98688.34
2019-01-26T02:30:43.214Z,98683.38
2019-01-26T02:33:10.680Z,98684.25
2019-01-26T02:35:38.201Z,98672.58
2019-01-26T02:38:05.649Z,98679.75
2019-01-26T02:40:33.117Z,98676.45
2019-01-26T02:43:00.609Z,98671.05
2019-01-26T02:45:28.128Z,98670.20
2019-01-26T02:47:55.617Z,98669.04
2019-01-26T02:50:23.134Z,98672.03
2019-01-26T02:52:50.641Z,98675.33
2019-01-26T02:55:18.175Z,98674.51
2019-01-26T02:57:45.614Z,98670.14
2019-01-26T03:00:15.710Z,98672.73
2019-01-26T03:02:43.179Z,98673.87
2019-01-26T03:05:10.650Z,98672.63
2019-01-26T03:07:38.115Z,98676.88
2019-01-26T03:10:05.559Z,98676.48
2019-01-26T03:12:33.029Z,98679.62
2019-01-26T03:15:00.502Z,98676.41
2019-01-26T03:17:27.968Z,98682.05
2019-01-26T03:19:55.457Z,98679.47
2019-01-26T03:22:23.013Z,98670.98
2019-01-26T03:24:50.476Z,98671.16
2019-01-26T03:27:18.372Z,98669.93
2019-01-26T03:29:45.829Z,98663.23
2019-01-26T03:32:13.394Z,98670.83
2019-01-26T03:34:40.905Z,98666.88
2019-01-26T03:37:09.192Z,98669.53
2019-01-26T03:39:36.751Z,98664.34
2019-01-26T03:42:04.245Z,98653.75
2019-01-26T03:44:31.731Z,98650.34
2019-01-26T03:46:59.193Z,98644.69
2019-01-26T03:49:26.658Z,98631.95
2019-01-26T03:51:54.130Z,98635.05
2019-01-26T03:54:21.660Z,98641.31
2019-01-26T03:56:49.139Z,98641.89
2019-01-26T03:59:16.610Z,98635.70
2019-01-26T04:01:44.055Z,98637.42
2019-01-26T04:04:11.530Z,98639.20
2019-01-26T04:06:39.014Z,98638.59
2019-01-26T04:09:06.499Z,98645.41
2019-01-26T04:11:33.964Z,98641.73
2019-01-26T04:14:01.426Z,98644.93
2019-01-26T04:16:28.896Z,98647.60
2019-01-26T04:18:56.369Z,98639.06
2019-01-26T04:21:23.847Z,98625.81
2019-01-26T04:23:51.358Z,98627.08
2019-01-26T04:26:19.279Z,98628.59
2019-01-26T04:28:46.767Z,98623.17
2019-01-26T04:31:14.259Z,98631.26
2019-01-26T04:33:41.789Z,98625.56
2019-01-26T04:36:09.281Z,98630.26
2019-01-26T04:38:36.720Z,98623.75
2019-01-26T04:41:04.189Z,98626.38
2019-01-26T04:43:31.690Z,98621.43
2019-01-26T04:45:59.173Z,98623.14
2019-01-26T04:48:26.638Z,98620.03
2019-01-26T04:50:54.103Z,98627.23
2019-01-26T04:53:21.615Z,98616.91
2019-01-26T04:55:49.866Z,98612.63
2019-01-26T04:58:17.332Z,98611.05
2019-01-26T05:00:44.810Z,98615.40
2019-01-26T05:03:12.299Z,98608.88
2019-01-26T05:05:39.740Z,98616.16
2019-01-26T05:08:07.243Z,98616.78
2019-01-26T05:10:34.682Z,98614.41
2019-01-26T05:13:02.149Z,98606.67
2019-01-26T05:15:29.667Z,98613.09
2019-01-26T05:17:57.167Z,98602.98
2019-01-26T05:20:24.624Z,98607.46
2019-01-26T05:22:52.129Z,98605.75
2019-01-26T05:25:20.441Z,98604.11
2019-01-26T05:27:47.912Z,98600.35
2019-01-26T05:30:16.058Z,98600.16
2019-01-26T05:32:43.534Z,98605.63
2019-01-26T05:35:11.025Z,98617.24
2019-01-26T05:37:38.513Z,98625.14
2019-01-26T05:40:11.549Z,98614.19
2019-01-26T05:42:39.015Z,98609.80
2019-01-26T05:45:07.091Z,98610.56
2019-01-26T05:47:34.600Z,98602.99
2019-01-26T05:50:02.055Z,98604.11
2019-01-26T05:52:29.543Z,98604.21
2019-01-26T05:54:57.001Z,98601.67
2019-01-26T05:57:24.448Z,98600.89
2019-01-26T05:59:51.907Z,98600.48
2019-01-26T06:02:19.346Z,98618.83
2019-01-26T06:04:46.876Z,98599.17
2019-01-26T06:07:14.319Z,98600.95
2019-01-26T06:09:41.818Z,98590.41
2019-01-26T06:12:09.271Z,98583.39
2019-01-26T06:14:36.755Z,98577.14
2019-01-26T06:17:04.238Z,98582.73
2019-01-26T06:19:31.716Z,98583.75
2019-01-26T06:21:59.208Z,98581.08
2019-01-26T06:24:27.621Z,98569.36
2019-01-26T06:26:55.173Z,98568.05
2019-01-26T06:29:22.628Z,98557.89
2019-01-26T06:31:50.124Z,98563.92
2019-01-26T06:34:17.600Z,98560.33
2019-01-26T06:36:45.066Z,98566.00
2019-01-26T06:39:12.557Z,98566.71
2019-01-26T06:41:40.016Z,98581.50
2019-01-26T06:44:07.448Z,98587.50
2019-01-26T06:46:34.997Z,98578.36
2019-01-26T06:49:02.425Z,98574.47
2019-01-26T06:51:29.901Z,98582.78
2019-01-26T06:53:57.389Z,98584.03
2019-01-26T06:56:24.831Z,98579.38
2019-01-26T06:58:53.321Z,98576.61
2019-01-26T07:01:20.865Z,98578.53
2019-01-26T07:03:48.329Z,98591.80
2019-01-26T07:06:16.049Z,98584.80
2019-01-26T07:08:43.539Z,98573.59
2019-01-26T07:11:10.987Z,98582.73
2019-01-26T07:13:38.484Z,98596.06
2019-01-26T07:16:05.981Z,98585.59
2019-01-26T07:18:33.452Z,98572.60
2019-01-26T07:21:01.039Z,98565.82
2019-01-26T07:23:28.494Z,98564.01
2019-01-26T07:25:55.954Z,98569.95
2019-01-26T07:28:23.443Z,98567.69
2019-01-26T07:30:50.969Z,98563.37
2019-01-26T07:33:18.413Z,98558.61
2019-01-26T07:35:45.859Z,98562.50
2019-01-26T07:38:13.954Z,98562.75
2019-01-26T07:40:40.886Z,98583.63
2019-01-26T07:43:08.386Z,98569.45
2019-01-26T07:45:35.829Z,98570.94
2019-01-26T07:48:03.377Z,98578.41
2019-01-26T07:50:30.812Z,98577.95
2019-01-26T07:52:58.557Z,98581.44
2019-01-26T07:55:26.013Z,98581.66
2019-01-26T07:57:53.486Z,98580.97
2019-01-26T08:00:21.932Z,98576.75
2019-01-26T08:02:49.395Z,98581.16
2019-01-26T08:05:16.839Z,98582.87
2019-01-26T08:07:44.329Z,98573.39
2019-01-26T08:10:11.903Z,98584.05
2019-01-26T08:12:39.376Z,98581.61
2019-01-26T08:15:06.843Z,98571.78
2019-01-26T08:17:34.416Z,98587.89
2019-01-26T08:20:01.887Z,98581.98
2019-01-26T08:22:29.431Z,98590.64
2019-01-26T08:24:56.959Z,98606.66
2019-01-26T08:27:24.432Z,98595.92
2019-01-26T08:29:51.889Z,98589.05
2019-01-26T08:32:19.355Z,98593.09
2019-01-26T08:34:46.787Z,98591.62
2019-01-26T08:37:14.267Z,98593.83
2019-01-26T08:39:41.721Z,98588.79
2019-01-26T08:42:10.011Z,98589.14
2019-01-26T08:44:37.516Z,98592.88
2019-01-26T08:47:05.020Z,98588.01
2019-01-26T08:49:32.584Z,98590.84
2019-01-26T08:52:00.131Z,98583.44
2019-01-26T08:54:27.613Z,98580.64
2019-01-26T08:56:55.101Z,98579.93
2019-01-26T08:59:22.606Z,98583.75
2019-01-26T09:01:50.097Z,98585.38
2019-01-26T09:04:17.582Z,98576.64
2019-01-26T09:06:45.073Z,98583.14
2019-01-26T09:09:12.608Z,98581.03
2019-01-26T09:11:40.090Z,98590.36
2019-01-26T09:14:08.298Z,98578.42
2019-01-26T09:16:35.761Z,98585.17
2019-01-26T09:19:03.232Z,98578.77
2019-01-26T09:21:30.755Z,98584.86
2019-01-26T09:23:59.196Z,98575.72
2019-01-26T09:26:26.760Z,98586.95
2019-01-26T09:28:54.280Z,98585.63
2019-01-26T09:31:21.767Z,98587.70
2019-01-26T09:33:49.230Z,98583.05
2019-01-26T09:36:16.717Z,98581.54
2019-01-26T09:38:44.190Z,98588.53
2019-01-26T09:41:11.633Z,98585.39
2019-01-26T09:43:39.108Z,98579.18
2019-01-26T09:46:06.666Z,98591.75
2019-01-26T09:48:34.136Z,98584.31
2019-01-26T09:51:01.584Z,98580.45
2019-01-26T09:53:29.055Z,98587.21
2019-01-26T09:55:56.559Z,98597.36
2019-01-26T09:58:24.314Z,98594.73
2019-01-26T10:00:51.861Z,98586.55
2019-01-26T10:03:19.341Z,98577.73
2019-01-26T10:05:46.843Z,98573.02
2019-01-26T10:08:15.453Z,98577.67
2019-01-26T10:10:43.117Z,98573.78
2019-01-26T10:13:10.740Z,98567.55
2019-01-26T10:15:38.201Z,98578.93
2019-01-26T10:18:05.720Z,98578.93
2019-01-26T10:20:34.042Z,98573.57
2019-01-26T10:23:02.600Z,98573.36
2019-01-26T10:25:30.347Z,98580.03
2019-01-26T10:27:57.797Z,98572.52
2019-01-26T10:30:25.260Z,98568.41
2019-01-26T10:32:52.734Z,98575.22
2019-01-26T10:35:20.217Z,98568.05
2019-01-26T10:37:47.707Z,98560.92
2019-01-26T10:40:21.578Z,98568.67
2019-01-26T10:42:49.053Z,98575.02
2019-01-26T10:45:17.411Z,98565.97
2019-01-26T10:47:45.005Z,98566.55
2019-01-26T10:50:12.467Z,98563.52
2019-01-26T10:52:39.953Z,98576.80
2019-01-26T10:55:07.409Z,98566.74
2019-01-26T10:57:34.897Z,98562.26
2019-01-26T11:00:02.401Z,98556.86
2019-01-26T11:02:29.825Z,98559.14
2019-01-26T11:04:57.346Z,98554.34
2019-01-26T11:07:25.603Z,98557.39
2019-01-26T11:09:53.155Z,98550.66
2019-01-26T11:12:20.594Z,98544.30
2019-01-26T11:14:48.131Z,98550.52
2019-01-26T11:17:15.598Z,98548.38
2019-01-26T11:19:43.121Z,98543.46
2019-01-26T11:22:10.594Z,98548.68
2019-01-26T11:24:38.080Z,98542.33
2019-01-26T11:27:05.624Z,98543.82
2019-01-26T11:29:33.363Z,98537.28
2019-01-26T11:32:00.831Z,98543.11
2019-01-26T11:34:28.292Z,98531.84
2019-01-26T11:36:55.788Z,98525.38
2019-01-26T11:39:23.223Z,98525.23
2019-01-26T11:41:50.715Z,98526.38
2019-01-26T11:44:18.163Z,98516.20
2019-01-26T11:46:45.654Z,98518.48
2019-01-26T11:49:15.146Z,98509.30
2019-01-26T11:51:40.598Z,98506.09
2019-01-26T11:54:08.126Z,98508.58
2019-01-26T11:56:38.439Z,98496.61
2019-01-26T11:59:05.902Z,98490.97
2019-01-26T12:01:35.883Z,98495.16
2019-01-26T12:04:03.864Z,98481.17
2019-01-26T12:06:31.301Z,98487.06
2019-01-26T12:08:58.788Z,98486.03
2019-01-26T12:11:27.370Z,98478.72
2019-01-26T12:13:53.766Z,98480.00
2019-01-26T12:16:26.909Z,98474.12
2019-01-26T12:18:48.768Z,98479.14
2019-01-26T12:21:16.242Z,98468.09
2019-01-26T12:23:43.694Z,98462.28
2019-01-26T12:26:11.126Z,98456.75
2019-01-26T12:28:38.581Z,98455.87
2019-01-26T12:31:06.039Z,98449.66
2019-01-26T12:33:33.984Z,98446.13
2019-01-26T12:36:01.437Z,98437.46
2019-01-26T12:38:29.976Z,98438.81
2019-01-26T12:40:57.466Z,98431.77
2019-01-26T12:43:24.965Z,98427.56
2019-01-26T12:45:52.425Z,98427.47
2019-01-26T12:48:19.893Z,98425.07
2019-01-26T12:50:47.366Z,98423.68
2019-01-26T12:53:14.863Z,98422.69
2019-01-26T12:55:42.298Z,98410.11
2019-01-26T12:58:09.742Z,98410.29
2019-01-26T13:00:37.204Z,98406.80
2019-01-26T13:03:04.631Z,98403.86
2019-01-26T13:05:32.218Z,98396.05
2019-01-26T13:07:59.682Z,98408.03
2019-01-26T13:10:38.704Z,98395.70
2019-01-26T13:13:06.181Z,98396.50
2019-01-26T13:15:33.720Z,98399.14
2019-01-26T13:18:01.182Z,98380.98
2019-01-26T13:20:28.661Z,98375.01
2019-01-26T13:22:56.112Z,98369.39
2019-01-26T13:25:23.562Z,98358.47
2019-01-26T13:27:51.004Z,98353.81
2019-01-26T13:30:19.069Z,98344.82
2019-01-26T13:32:46.690Z,98347.59
2019-01-26T13:35:14.057Z,98340.67
2019-01-26T13:37:41.492Z,98334.38
2019-01-26T13:40:24.588Z,98330.28
2019-01-26T13:42:52.093Z,98328.22
2019-01-26T13:45:21.439Z,98329.07
2019-01-26T13:47:48.911Z,98323.08
2019-01-26T13:50:16.393Z,98320.73
2019-01-26T13:52:43.839Z,98318.75
2019-01-26T13:55:15.730Z,98310.55
2019-01-26T13:57:43.180Z,98325.89
2019-01-26T14:00:11.453Z,98320.26
2019-01-26T14:02:38.907Z,98319.31
2019-01-26T14:05:06.377Z,98312.55
2019-01-26T14:07:35.390Z,98317.19
2019-01-26T14:10:02.895Z,98322.09
2019-01-26T14:12:31.031Z,98310.05
2019-01-26T14:14:58.495Z,98304.88
2019-01-26T14:17:25.931Z,98301.51
2019-01-26T14:19:53.419Z,98294.37
2019-01-26T14:22:20.841Z,98294.17
2019-01-26T14:24:48.345Z,98294.25
2019-01-26T14:27:15.799Z,98286.80
2019-01-26T14:29:43.239Z,98281.56
2019-01-26T14:32:10.734Z,98283.41
2019-01-26T14:34:38.256Z,98280.63
2019-01-26T14:37:06.458Z,98274.39
2019-01-26T14:39:33.924Z,98277.57
2019-01-26T14:42:01.410Z,98272.70
2019-01-26T14:44:28.873Z,98275.48
2019-01-26T14:46:56.312Z,98268.61
2019-01-26T14:49:23.757Z,98261.38
2019-01-26T14:51:52.076Z,98263.16
2019-01-26T14:54:19.555Z,98260.03
2019-01-26T14:56:46.980Z,98261.39
2019-01-26T14:59:14.433Z,98247.67
2019-01-26T15:01:41.905Z,98247.56
2019-01-26T15:04:09.414Z,98238.69
2019-01-26T15:06:37.157Z,98234.77
2019-01-26T15:09:04.591Z,98234.50
2019-01-26T15:11:32.031Z,98227.09
2019-01-26T15:13:59.556Z,98225.55
2019-01-26T15:16:27.048Z,98225.37
2019-01-26T15:18:54.472Z,98216.15
2019-01-26T15:21:21.935Z,98220.09
2019-01-26T15:23:49.522Z,98210.55
2019-01-26T15:26:17.034Z,98203.39
2019-01-26T15:28:44.499Z,98199.16
2019-01-26T15:31:11.957Z,98195.55
2019-01-26T15:33:39.422Z,98189.95
2019-01-26T15:36:09.101Z,98186.77
2019-01-26T15:38:35.010Z,98187.16
2019-01-26T15:41:02.480Z,98181.80
2019-01-26T15:43:29.915Z,98181.67
2019-01-26T15:45:57.414Z,98178.63
2019-01-26T15:48:24.846Z,98179.41
2019-01-26T15:50:52.340Z,98179.37
2019-01-26T15:53:19.796Z,98178.81
2019-01-26T15:55:47.266Z,98168.50
2019-01-26T15:58:14.771Z,98170.69
2019-01-26T16:00:42.235Z,98167.14
2019-01-26T16:03:09.697Z,98161.64
2019-01-26T16:05:38.143Z,98158.42
2019-01-26T16:08:05.625Z,98150.39
2019-01-26T16:10:33.208Z,98152.78
2019-01-26T16:13:00.648Z,98144.41
2019-01-26T16:15:28.135Z,98142.12
2019-01-26T16:17:55.604Z,98134.63
2019-01-26T16:20:23.078Z,98138.82
2019-01-26T16:22:50.543Z,98130.45
2019-01-26T16:25:17.995Z,98123.11
2019-01-26T16:27:45.441Z,98129.20
2019-01-26T16:30:15.614Z,98114.31
2019-01-26T16:32:43.063Z,98109.73
2019-01-26T16:35:10.574Z,98108.03
2019-01-26T16:37:38.719Z,98099.88
2019-01-26T16:40:07.719Z,98100.14
2019-01-26T16:42:35.167Z,98105.50
2019-01-26T16:45:02.714Z,98108.38
2019-01-26T16:47:30.209Z,98103.80
2019-01-26T16:49:57.644Z,98099.09
2019-01-26T16:52:25.106Z,98101.44
2019-01-26T16:54:52.555Z,98089.50
2019-01-26T16:57:20.130Z,98091.84
2019-01-26T16:59:47.613Z,98081.86
2019-01-26T17:02:15.202Z,98079.46
2019-01-26T17:04:42.651Z,98083.27
2019-01-26T17:07:10.099Z,98068.02
2019-01-26T17:09:37.550Z,98073.61
2019-01-26T17:12:04.985Z,98062.23
2019-01-26T17:14:32.462Z,98054.59
2019-01-26T17:16:59.906Z,98050.47
2019-01-26T17:19:27.420Z,98042.33
2019-01-26T17:21:54.851Z,98043.30
2019-01-26T17:24:22.288Z,98040.73
2019-01-26T17:26:52.915Z,98035.07
2019-01-26T17:29:17.483Z,98034.48
2019-01-26T17:31:45.079Z,98036.08
2019-01-26T17:34:12.553Z,98019.28
2019-01-26T17:36:40.030Z,98016.91
2019-01-26T17:39:07.571Z,98015.55
2019-01-26T17:41:35.046Z,98010.50
2019-01-26T17:44:02.518Z,98009.08
2019-01-26T17:46:30.006Z,97999.80
2019-01-26T17:48:57.448Z,98009.50
2019-01-26T17:51:24.887Z,98003.14
2019-01-26T17:53:52.375Z,98000.92
2019-01-26T17:56:19.877Z,97986.97
2019-01-26T17:58:47.307Z,97985.31
2019-01-26T18:01:14.749Z,97973.22
2019-01-26T18:03:42.211Z,97975.20
2019-01-26T18:06:10.228Z,97963.55
2019-01-26T18:08:39.478Z,97967.98
2019-01-26T18:11:07.009Z,97966.89
2019-01-26T18:13:34.483Z,97959.37
2019-01-26T18:16:01.926Z,97954.91
2019-01-26T18:18:29.369Z,97952.93
2019-01-26T18:20:56.844Z,97956.13
2019-01-26T18:23:24.659Z,97952.75
2019-01-26T18:25:51.830Z,97939.91
2019-01-26T18:28:19.279Z,97941.23
2019-01-26T18:30:46.719Z,97938.02
2019-01-26T18:33:14.222Z,97928.09
2019-01-26T18:35:41.678Z,97920.80
2019-01-26T18:38:09.142Z,97923.46
2019-01-26T18:40:36.605Z,97914.53
2019-01-26T18:43:04.091Z,97914.80
2019-01-26T18:45:31.547Z,97904.70
2019-01-26T18:47:59.000Z,97900.02
2019-01-26T18:50:43.097Z,97893.97
2019-01-26T18:53:11.131Z,97893.27
2019-01-26T18:55:38.672Z,97888.08
2019-01-26T18:58:08.513Z,97881.56
2019-01-26T19:00:36.055Z,97880.95
2019-01-26T19:03:22.148Z,97869.35
2019-01-26T19:05:49.769Z,97868.55
2019-01-26T19:08:17.285Z,97858.27
2019-01-26T19:10:44.877Z,97861.66
2019-01-26T19:13:12.415Z,97859.22
2019-01-26T19:15:39.992Z,97852.34
2019-01-26T19:18:07.553Z,97853.84
2019-01-26T19:20:35.034Z,97844.39
2019-01-26T19:23:02.672Z,97838.32
2019-01-26T19:25:30.144Z,97854.05
2019-01-26T19:27:57.594Z,97840.63
2019-01-26T19:30:25.058Z,97829.93
2019-01-26T19:32:52.508Z,97826.21
2019-01-26T19:35:19.986Z,97819.11
2019-01-26T19:37:47.463Z,97817.06
2019-01-26T19:40:23.808Z,97817.05
2019-01-26T19:42:52.078Z,97813.34
2019-01-26T19:45:20.961Z,97810.46
2019-01-26T19:47:48.488Z,97809.32
2019-01-26T19:50:19.610Z,97808.31
2019-01-26T19:52:47.067Z,97803.63
2019-01-26T19:55:14.481Z,97801.61
2019-01-26T19:57:42.688Z,97803.43
2019-01-26T20:00:10.142Z,97791.02
2019-01-26T20:02:37.606Z,97784.41
2019-01-26T20:05:05.068Z,97787.16
2019-01-26T20:07:32.498Z,97773.71
2019-01-26T20:09:59.943Z,97770.88
2019-01-26T20:12:27.393Z,97768.36
2019-01-26T20:14:54.856Z,97763.87
2019-01-26T20:17:22.345Z,97762.53
2019-01-26T20:19:49.903Z,97757.21
2019-01-26T20:22:17.470Z,97749.34
2019-01-26T20:24:44.936Z,97741.44
2019-01-26T20:27:13.429Z,97738.41
2019-01-26T20:29:41.464Z,97736.79
2019-01-26T20:32:09.042Z,97740.26
2019-01-26T20:34:36.706Z,97726.40
2019-01-26T20:37:04.308Z,97722.93
2019-01-26T20:39:31.760Z,97710.91
2019-01-26T20:41:59.358Z,97714.86
2019-01-26T20:44:26.750Z,97692.79
2019-01-26T20:46:54.227Z,97688.48
2019-01-26T20:49:21.696Z,97682.25
2019-01-26T20:51:49.166Z,97686.36
2019-01-26T20:54:16.628Z,97673.02
2019-01-26T20:56:44.086Z,97674.70
2019-01-26T20:59:11.542Z,97663.02
2019-01-26T21:01:39.101Z,97656.73
2019-01-26T21:04:06.564Z,97650.97
2019-01-26T21:06:34.048Z,97641.39
2019-01-26T21:09:01.513Z,97632.02
2019-01-26T21:11:31.279Z,97615.98
2019-01-26T21:13:58.798Z,97607.06
2019-01-26T21:16:26.265Z,97603.09
2019-01-26T21:18:53.742Z,97603.42
2019-01-26T21:21:21.207Z,97598.19
2019-01-26T21:23:48.671Z,97593.87
2019-01-26T21:26:16.215Z,97589.38
2019-01-26T21:28:44.413Z,97587.84
2019-01-26T21:31:12.073Z,97582.65
2019-01-26T21:33:39.509Z,97578.28
2019-01-26T21:36:06.968Z,97571.19
2019-01-26T21:38:35.409Z,97562.03
2019-01-26T21:41:03.070Z,97554.27
2019-01-26T21:43:30.512Z,97552.25
2019-01-26T21:45:58.231Z,97545.13
2019-01-26T21:48:25.723Z,97545.00
2019-01-26T21:50:53.287Z,97534.27
2019-01-26T21:53:20.748Z,97526.97
2019-01-26T21:55:48.310Z,97516.53
2019-01-26T21:58:16.259Z,97516.92
2019-01-26T22:00:44.607Z,97507.95
2019-01-26T22:03:12.153Z,97518.58
2019-01-26T22:05:39.592Z,97502.72
2019-01-26T22:08:07.044Z,97499.70
2019-01-26T22:10:34.512Z,97494.73
2019-01-26T22:13:02.008Z,97493.50
2019-01-26T22:15:29.457Z,97493.62
2019-01-26T22:17:56.892Z,97485.27
2019-01-26T22:20:24.381Z,97485.92
2019-01-26T22:22:53.258Z,97486.87
2019-01-26T22:25:20.796Z,97476.84
2019-01-26T22:27:48.248Z,97472.70
2019-01-26T22:30:21.608Z,97474.62
2019-01-26T22:32:49.052Z,97463.09
2019-01-26T22:35:16.774Z,97461.14
2019-01-26T22:37:44.213Z,97457.66
2019-01-26T22:40:11.694Z,97452.76
2019-01-26T22:42:39.147Z,97442.00
2019-01-26T22:45:06.650Z,97444.42
2019-01-26T22:47:34.187Z,97436.35
2019-01-26T22:50:01.637Z,97430.86
2019-01-26T22:52:29.080Z,97429.70
2019-01-26T22:54:56.575Z,97417.59
2019-01-26T22:57:24.054Z,97415.90
2019-01-26T22:59:52.324Z,97415.84
2019-01-26T23:02:19.765Z,97408.83
2019-01-26T23:04:48.069Z,97414.19
2019-01-26T23:07:19.153Z,97404.24
2019-01-26T23:09:48.098Z,97400.50
2019-01-26T23:12:18.168Z,97394.08
2019-01-26T23:15:01.135Z,97391.70
2019-01-26T23:17:31.178Z,97395.36
2019-01-26T23:19:59.406Z,97385.45
2019-01-26T23:22:33.349Z,97375.08
2019-01-26T23:25:16.975Z,97364.59
2019-01-26T23:27:46.688Z,97353.53
2019-01-26T23:30:25.943Z,97357.35
2019-01-26T23:32:53.792Z,97332.52
2019-01-26T23:35:21.209Z,97323.22
2019-01-26T23:37:48.680Z,97315.79
2019-01-26T23:40:17.207Z,97315.70
2019-01-26T23:42:44.666Z,97308.16
2019-01-26T23:45:12.172Z,97294.59
2019-01-26T23:47:39.597Z,97296.83
2019-01-26T23:50:07.032Z,97275.18
2019-01-26T23:52:34.461Z,97283.59
2019-01-26T23:55:02.064Z,97270.80
2019-01-26T23:57:29.554Z,97266.39
2019-01-26T23:59:56.971Z,97260.42
